createdAt,value
2019-06-27T00:00:58.947Z,11.83
2019-06-27T00:03:29.444Z,8.90
2019-06-27T00:06:00.053Z,10.60
2019-06-27T00:08:30.751Z,9.87
2019-06-27T00:11:01.209Z,9.33
2019-06-27T00:13:31.718Z,9.20
2019-06-27T00:16:02.292Z,8.60
2019-06-27T00:18:32.761Z,8.63
2019-06-27T00:21:03.294Z,9.03
2019-06-27T00:23:33.770Z,8.87
2019-06-27T00:26:04.236Z,9.67
2019-06-27T00:28:34.832Z,9.00
2019-06-27T00:31:05.290Z,10.27
2019-06-27T00:33:35.800Z,9.77
2019-06-27T00:36:06.263Z,11.03
2019-06-27T00:38:36.727Z,10.27
2019-06-27T00:41:07.319Z,10.87
2019-06-27T00:43:37.776Z,11.30
2019-06-27T00:46:08.375Z,13.83
2019-06-27T00:48:38.841Z,11.47
2019-06-27T00:51:09.415Z,11.63
2019-06-27T00:53:39.914Z,11.90
2019-06-27T00:56:10.383Z,11.87
2019-06-27T00:58:40.857Z,11.57
2019-06-27T01:01:11.639Z,11.93
2019-06-27T01:03:42.107Z,11.20
2019-06-27T01:06:12.617Z,11.83
2019-06-27T01:08:43.182Z,12.10
2019-06-27T01:11:13.715Z,12.80
2019-06-27T01:13:44.183Z,12.27
2019-06-27T01:16:14.695Z,12.90
2019-06-27T01:18:45.178Z,13.00
2019-06-27T01:21:15.687Z,13.13
2019-06-27T01:23:46.165Z,13.73
2019-06-27T01:26:16.671Z,13.00
2019-06-27T01:28:47.419Z,13.43
2019-06-27T01:31:17.924Z,13.90
2019-06-27T01:33:48.525Z,14.23
2019-06-27T01:36:19.004Z,13.40
2019-06-27T01:38:49.569Z,12.83
2019-06-27T01:41:19.987Z,14.20
2019-06-27T01:43:52.532Z,13.33
2019-06-27T01:46:22.644Z,13.03
2019-06-27T01:48:53.153Z,14.13
2019-06-27T01:51:23.628Z,13.43
2019-06-27T01:53:54.130Z,13.27
2019-06-27T01:56:24.594Z,13.67
2019-06-27T01:58:55.104Z,13.00
2019-06-27T02:01:25.670Z,13.23
2019-06-27T02:03:56.198Z,13.30
2019-06-27T02:06:26.666Z,12.87
2019-06-27T02:08:57.168Z,13.80
2019-06-27T02:11:27.626Z,13.57
2019-06-27T02:13:58.140Z,13.77
2019-06-27T02:16:28.633Z,13.63
2019-06-27T02:18:59.110Z,13.77
2019-06-27T02:21:29.607Z,12.93
2019-06-27T02:24:00.104Z,14.13
2019-06-27T02:26:30.564Z,12.97
2019-06-27T02:29:01.078Z,13.47
2019-06-27T02:31:31.560Z,13.27
2019-06-27T02:34:06.524Z,13.57
2019-06-27T02:36:34.226Z,13.87
2019-06-27T02:39:05.992Z,13.70
2019-06-27T02:41:36.699Z,13.70
2019-06-27T02:44:07.164Z,14.23
2019-06-27T02:46:37.636Z,14.10
2019-06-27T02:49:08.251Z,14.80
2019-06-27T02:51:38.869Z,14.60
2019-06-27T02:54:09.373Z,14.80
2019-06-27T02:56:39.856Z,14.00
2019-06-27T02:59:10.361Z,14.70
2019-06-27T03:01:40.865Z,14.77
2019-06-27T03:04:11.372Z,14.33
2019-06-27T03:06:41.891Z,14.37
2019-06-27T03:09:12.462Z,14.90
2019-06-27T03:11:42.948Z,14.47
2019-06-27T03:14:13.457Z,14.63
2019-06-27T03:16:44.039Z,14.03
2019-06-27T03:19:14.653Z,13.07
2019-06-27T03:21:45.285Z,13.83
2019-06-27T03:24:15.765Z,13.53
2019-06-27T03:26:46.271Z,14.47
2019-06-27T03:29:20.152Z,13.73
2019-06-27T03:31:48.946Z,13.17
2019-06-27T03:34:19.482Z,12.13
2019-06-27T03:36:50.050Z,11.97
2019-06-27T03:39:20.567Z,11.33
2019-06-27T03:41:51.072Z,15.23
2019-06-27T03:44:21.581Z,11.67
2019-06-27T03:46:52.071Z,11.97
2019-06-27T03:49:22.533Z,11.50
2019-06-27T03:51:53.027Z,12.50
2019-06-27T03:54:23.624Z,12.00
2019-06-27T03:56:54.192Z,12.07
2019-06-27T03:59:24.713Z,10.70
2019-06-27T04:01:55.219Z,11.57
2019-06-27T04:04:25.836Z,13.87
2019-06-27T04:06:56.338Z,10.33
2019-06-27T04:09:26.830Z,9.83
2019-06-27T04:11:57.326Z,9.93
2019-06-27T04:14:27.758Z,9.47
2019-06-27T04:16:58.209Z,9.07
2019-06-27T04:19:28.794Z,8.90
2019-06-27T04:21:59.274Z,9.00
2019-06-27T04:24:29.763Z,8.90
2019-06-27T04:27:00.328Z,9.60
2019-06-27T04:29:33.889Z,10.67
2019-06-27T04:32:03.076Z,12.70
2019-06-27T04:34:33.539Z,14.83
2019-06-27T04:37:04.116Z,10.60
2019-06-27T04:39:34.615Z,16.37
2019-06-27T04:42:05.085Z,12.87
2019-06-27T04:44:35.570Z,10.60
2019-06-27T04:47:06.071Z,11.20
2019-06-27T04:49:36.595Z,9.90
2019-06-27T04:52:07.263Z,11.03
2019-06-27T04:54:37.835Z,14.37
2019-06-27T04:57:08.308Z,11.70
2019-06-27T04:59:52.615Z,11.00
2019-06-27T05:02:11.102Z,11.23
2019-06-27T05:04:41.602Z,10.70
2019-06-27T05:07:12.208Z,9.43
2019-06-27T05:09:42.712Z,9.87
2019-06-27T05:12:13.337Z,12.60
2019-06-27T05:14:43.827Z,11.50
2019-06-27T05:17:16.089Z,10.60
2019-06-27T05:19:46.563Z,10.40
2019-06-27T05:22:17.084Z,13.40
2019-06-27T05:24:47.584Z,11.27
2019-06-27T05:27:19.094Z,12.03
2019-06-27T05:29:50.316Z,12.53
2019-06-27T05:32:21.842Z,10.73
2019-06-27T05:34:58.667Z,11.00
2019-06-27T05:37:34.180Z,11.10
2019-06-27T05:40:10.181Z,11.20
2019-06-27T05:42:40.970Z,10.53
2019-06-27T05:45:13.111Z,9.70
2019-06-27T05:47:43.983Z,10.73
2019-06-27T05:50:14.552Z,10.70
2019-06-27T05:52:46.823Z,10.67
2019-06-27T05:55:17.526Z,11.90
2019-06-27T05:57:48.452Z,10.47
2019-06-27T06:00:28.069Z,10.90
2019-06-27T06:02:51.199Z,9.83
2019-06-27T06:05:21.746Z,11.30
2019-06-27T06:07:52.445Z,9.53
2019-06-27T06:10:22.952Z,10.80
2019-06-27T06:12:53.455Z,10.73
2019-06-27T06:15:24.091Z,9.00
2019-06-27T06:17:54.960Z,9.43
2019-06-27T06:20:25.601Z,8.80
2019-06-27T06:22:56.205Z,9.57
2019-06-27T06:25:26.723Z,8.37
2019-06-27T06:27:57.222Z,10.43
2019-06-27T06:30:43.098Z,9.07
2019-06-27T06:33:00.009Z,9.23
2019-06-27T06:35:30.477Z,11.30
2019-06-27T06:38:01.674Z,8.23
2019-06-27T06:40:32.172Z,10.83
2019-06-27T06:43:02.709Z,11.47
2019-06-27T06:45:33.294Z,7.80
2019-06-27T06:48:03.858Z,8.10
2019-06-27T06:50:34.505Z,16.53
2019-06-27T06:53:05.249Z,7.80
2019-06-27T06:55:35.812Z,8.73
2019-06-27T06:58:07.689Z,16.30
2019-06-27T07:00:38.343Z,13.17
2019-06-27T07:03:08.939Z,8.27
2019-06-27T07:05:40.029Z,7.73
2019-06-27T07:08:11.067Z,9.33
2019-06-27T07:10:41.608Z,11.83
2019-06-27T07:13:12.087Z,9.40
2019-06-27T07:15:43.255Z,15.17
2019-06-27T07:18:13.851Z,9.00
2019-06-27T07:20:44.515Z,13.10
2019-06-27T07:23:15.156Z,8.40
2019-06-27T07:25:45.734Z,17.43
2019-06-27T07:28:16.534Z,20.67
2019-06-27T07:30:47.310Z,9.20
2019-06-27T07:33:19.273Z,8.67
2019-06-27T07:35:53.142Z,8.00
2019-06-27T07:38:25.761Z,13.17
2019-06-27T07:40:56.416Z,16.03
2019-06-27T07:43:27.374Z,16.50
2019-06-27T07:45:59.259Z,8.70
2019-06-27T07:48:31.094Z,15.30
2019-06-27T07:51:02.222Z,12.63
2019-06-27T07:53:38.606Z,6.37
2019-06-27T07:56:09.913Z,13.23
2019-06-27T07:58:43.737Z,8.47
2019-06-27T08:01:14.815Z,9.60
2019-06-27T08:03:48.223Z,15.40
2019-06-27T08:06:20.879Z,8.20
2019-06-27T08:08:55.178Z,9.43
2019-06-27T08:11:27.095Z,6.37
2019-06-27T08:13:57.879Z,5.97
2019-06-27T08:16:28.844Z,8.57
2019-06-27T08:18:59.749Z,9.30
2019-06-27T08:21:30.427Z,11.93
2019-06-27T08:24:02.108Z,15.73
2019-06-27T08:26:36.589Z,5.87
2019-06-27T08:29:09.421Z,8.43
2019-06-27T08:31:50.870Z,11.37
2019-06-27T08:34:14.374Z,7.17
2019-06-27T08:36:47.480Z,6.23
2019-06-27T08:39:20.019Z,12.20
2019-06-27T08:41:57.166Z,6.37
2019-06-27T08:44:27.909Z,7.83
2019-06-27T08:46:59.504Z,10.53
2019-06-27T08:49:31.179Z,7.97
2019-06-27T08:52:01.883Z,8.33
2019-06-27T08:54:32.616Z,10.43
2019-06-27T08:57:03.433Z,8.07
2019-06-27T08:59:34.081Z,8.53
2019-06-27T09:02:09.549Z,12.03
2019-06-27T09:04:40.330Z,5.70
2019-06-27T09:07:14.365Z,17.30
2019-06-27T09:09:44.931Z,18.23
2019-06-27T09:12:16.766Z,8.10
2019-06-27T09:14:47.509Z,8.60
2019-06-27T09:17:18.709Z,13.37
2019-06-27T09:19:55.320Z,7.93
2019-06-27T09:22:26.133Z,5.50
2019-06-27T09:24:56.930Z,10.63
2019-06-27T09:27:27.582Z,18.73
2019-06-27T09:29:58.176Z,10.50
2019-06-27T09:32:29.090Z,6.40
2019-06-27T09:34:59.983Z,11.43
2019-06-27T09:37:32.415Z,6.47
2019-06-27T09:40:03.040Z,5.10
2019-06-27T09:42:33.585Z,6.27
2019-06-27T09:45:04.384Z,12.10
2019-06-27T09:47:34.985Z,5.03
2019-06-27T09:50:05.860Z,4.87
2019-06-27T09:52:36.823Z,7.85
2019-06-27T09:55:07.989Z,5.25
2019-06-27T09:57:38.732Z,5.30
2019-06-27T10:00:10.057Z,9.57
2019-06-27T10:02:42.632Z,10.10
2019-06-27T10:05:13.823Z,8.43
2019-06-27T10:07:47.306Z,5.95
2019-06-27T10:10:18.895Z,5.70
2019-06-27T10:12:49.881Z,5.37
2019-06-27T10:15:20.699Z,7.47
2019-06-27T10:17:51.275Z,7.00
2019-06-27T10:20:23.626Z,4.95
2019-06-27T10:22:54.302Z,9.78
2019-06-27T10:25:25.411Z,12.95
2019-06-27T10:27:57.067Z,16.45
2019-06-27T10:30:28.262Z,7.28
2019-06-27T10:33:03.280Z,6.75
2019-06-27T10:35:34.548Z,10.08
2019-06-27T10:38:05.491Z,11.97
2019-06-27T10:40:37.059Z,9.93
2019-06-27T10:43:07.825Z,16.57
2019-06-27T10:45:38.282Z,8.83
2019-06-27T10:48:08.869Z,8.83
2019-06-27T10:50:39.317Z,5.30
2019-06-27T10:53:09.831Z,5.97
2019-06-27T10:55:40.304Z,5.75
2019-06-27T10:58:10.763Z,6.25
2019-06-27T11:00:41.289Z,5.12
2019-06-27T11:03:16.093Z,7.57
2019-06-27T11:05:44.120Z,5.10
2019-06-27T11:08:14.583Z,5.40
2019-06-27T11:10:45.098Z,5.90
2019-06-27T11:13:15.595Z,8.85
2019-06-27T11:15:49.190Z,9.20
2019-06-27T11:18:21.273Z,6.78
2019-06-27T11:20:50.610Z,4.58
2019-06-27T11:23:21.165Z,5.97
2019-06-27T11:25:51.769Z,8.80
2019-06-27T11:28:22.344Z,7.27
2019-06-27T11:30:52.892Z,5.40
2019-06-27T11:33:32.871Z,5.62
2019-06-27T11:35:55.554Z,4.97
2019-06-27T11:38:26.210Z,6.63
2019-06-27T11:40:56.766Z,5.60
2019-06-27T11:43:27.262Z,4.60
2019-06-27T11:45:57.759Z,6.35
2019-06-27T11:48:28.277Z,11.18
2019-06-27T11:50:58.815Z,7.63
2019-06-27T11:53:29.313Z,5.27
2019-06-27T11:55:59.864Z,5.17
2019-06-27T11:58:30.334Z,5.57
2019-06-27T12:01:00.946Z,7.17
2019-06-27T12:03:45.032Z,10.50
2019-06-27T12:06:03.809Z,6.63
2019-06-27T12:08:34.366Z,5.80
2019-06-27T12:11:06.788Z,9.85
2019-06-27T12:13:37.299Z,8.70
2019-06-27T12:16:07.752Z,4.85
2019-06-27T12:18:38.284Z,5.00
2019-06-27T12:21:08.764Z,5.92
2019-06-27T12:23:39.340Z,8.28
2019-06-27T12:26:09.878Z,16.00
2019-06-27T12:28:40.375Z,5.60
2019-06-27T12:31:20.420Z,10.30
2019-06-27T12:33:43.071Z,5.92
2019-06-27T12:36:13.527Z,14.33
2019-06-27T12:38:44.028Z,5.72
2019-06-27T12:41:14.591Z,4.85
2019-06-27T12:43:45.306Z,8.38
2019-06-27T12:46:15.858Z,5.85
2019-06-27T12:48:46.453Z,11.38
2019-06-27T12:51:16.960Z,8.70
2019-06-27T12:53:47.447Z,5.03
2019-06-27T12:56:17.978Z,7.47
2019-06-27T12:58:48.478Z,5.40
2019-06-27T13:01:18.938Z,5.53
2019-06-27T13:03:49.482Z,8.38
2019-06-27T13:06:19.963Z,12.13
2019-06-27T13:08:50.419Z,5.83
2019-06-27T13:11:20.944Z,6.00
2019-06-27T13:13:51.434Z,12.20
2019-06-27T13:16:21.891Z,5.97
2019-06-27T13:18:52.402Z,6.78
2019-06-27T13:21:22.975Z,5.75
2019-06-27T13:23:53.505Z,6.05
2019-06-27T13:26:23.977Z,9.83
2019-06-27T13:28:54.516Z,6.78
2019-06-27T13:31:25.032Z,6.83
2019-06-27T13:33:55.484Z,5.85
2019-06-27T13:36:26.077Z,10.38
2019-06-27T13:38:56.556Z,9.35
2019-06-27T13:41:27.085Z,8.73
2019-06-27T13:43:57.535Z,5.62
2019-06-27T13:46:28.053Z,11.10
2019-06-27T13:48:58.585Z,7.12
2019-06-27T13:51:29.131Z,6.15
2019-06-27T13:53:59.633Z,7.40
2019-06-27T13:56:30.194Z,5.12
2019-06-27T13:59:00.884Z,5.50
2019-06-27T14:01:31.337Z,7.43
2019-06-27T14:04:01.845Z,11.75
2019-06-27T14:06:32.403Z,16.62
2019-06-27T14:09:03.052Z,11.90
2019-06-27T14:11:33.797Z,8.15
2019-06-27T14:14:04.465Z,8.45
2019-06-27T14:16:35.002Z,7.22
2019-06-27T14:19:05.521Z,9.58
2019-06-27T14:21:35.999Z,6.42
2019-06-27T14:24:06.633Z,5.22
2019-06-27T14:26:37.384Z,5.50
2019-06-27T14:29:07.873Z,7.12
2019-06-27T14:31:38.467Z,6.30
2019-06-27T14:34:09.083Z,5.08
2019-06-27T14:36:39.544Z,5.55
2019-06-27T14:39:10.063Z,9.98
2019-06-27T14:41:40.622Z,5.15
2019-06-27T14:44:11.119Z,6.90
2019-06-27T14:46:41.575Z,6.92
2019-06-27T14:49:12.174Z,6.08
2019-06-27T14:51:42.633Z,7.08
2019-06-27T14:54:13.123Z,5.92
2019-06-27T14:56:43.582Z,5.95
2019-06-27T14:59:14.678Z,5.85
2019-06-27T15:01:45.227Z,12.93
2019-06-27T15:04:15.730Z,6.83
2019-06-27T15:06:46.327Z,7.30
2019-06-27T15:09:16.803Z,5.87
2019-06-27T15:11:47.301Z,5.60
2019-06-27T15:14:17.760Z,4.83
2019-06-27T15:16:48.220Z,5.83
2019-06-27T15:19:18.717Z,8.78
2019-06-27T15:21:49.212Z,6.50
2019-06-27T15:24:19.687Z,5.20
2019-06-27T15:26:50.179Z,5.22
2019-06-27T15:29:20.640Z,7.87
2019-06-27T15:31:51.148Z,5.03
2019-06-27T15:34:21.591Z,5.53
2019-06-27T15:36:52.079Z,6.50
2019-06-27T15:39:22.550Z,8.50
2019-06-27T15:41:53.050Z,5.03
2019-06-27T15:44:23.506Z,5.80
2019-06-27T15:46:54.530Z,6.10
2019-06-27T15:49:25.030Z,5.03
2019-06-27T15:51:55.558Z,4.75
2019-06-27T15:54:26.037Z,4.97
2019-06-27T15:56:56.629Z,4.65
2019-06-27T15:59:27.083Z,5.17
2019-06-27T16:01:57.565Z,5.20
2019-06-27T16:04:34.003Z,8.48
2019-06-27T16:07:00.582Z,7.03
2019-06-27T16:09:31.196Z,5.28
2019-06-27T16:12:01.763Z,7.03
2019-06-27T16:14:32.285Z,5.08
2019-06-27T16:17:02.742Z,5.67
2019-06-27T16:19:33.247Z,13.08
2019-06-27T16:22:03.705Z,5.70
2019-06-27T16:24:34.187Z,5.25
2019-06-27T16:27:04.745Z,4.78
2019-06-27T16:29:35.252Z,5.15
2019-06-27T16:32:05.836Z,6.57
2019-06-27T16:34:36.279Z,5.45
2019-06-27T16:37:06.875Z,4.80
2019-06-27T16:39:38.986Z,5.13
2019-06-27T16:42:09.802Z,4.63
2019-06-27T16:44:40.246Z,4.67
2019-06-27T16:47:10.894Z,5.00
2019-06-27T16:49:41.386Z,4.27
2019-06-27T16:52:11.902Z,4.80
2019-06-27T16:54:42.387Z,5.87
2019-06-27T16:57:12.889Z,4.70
2019-06-27T16:59:43.392Z,4.97
2019-06-27T17:02:13.848Z,4.57
2019-06-27T17:04:44.327Z,4.90
2019-06-27T17:07:14.813Z,5.47
2019-06-27T17:09:45.295Z,4.60
2019-06-27T17:12:15.769Z,4.83
2019-06-27T17:14:46.293Z,6.07
2019-06-27T17:17:16.754Z,6.00
2019-06-27T17:19:47.219Z,5.37
2019-06-27T17:22:17.728Z,5.53
2019-06-27T17:24:48.220Z,9.27
2019-06-27T17:27:18.675Z,4.93
2019-06-27T17:29:49.136Z,6.20
2019-06-27T17:32:19.628Z,5.03
2019-06-27T17:34:50.064Z,5.27
2019-06-27T17:37:20.511Z,5.40
2019-06-27T17:39:50.998Z,5.27
2019-06-27T17:42:21.481Z,7.00
2019-06-27T17:44:51.926Z,5.73
2019-06-27T17:47:22.445Z,6.50
2019-06-27T17:49:52.924Z,5.80
2019-06-27T17:52:23.412Z,6.27
2019-06-27T17:54:53.904Z,9.83
2019-06-27T17:57:24.578Z,17.67
2019-06-27T17:59:55.054Z,26.87
2019-06-27T18:02:25.556Z,14.97
2019-06-27T18:04:56.045Z,20.10
2019-06-27T18:07:26.512Z,12.53
2019-06-27T18:09:57.035Z,10.60
2019-06-27T18:12:27.479Z,13.80
2019-06-27T18:14:58.000Z,19.30
2019-06-27T18:17:33.642Z,12.67
2019-06-27T18:20:00.667Z,15.70
2019-06-27T18:22:32.900Z,11.57
2019-06-27T18:25:03.506Z,14.60
2019-06-27T18:36:32.394Z,21.53
2019-06-27T18:39:02.855Z,18.60
2019-06-27T18:41:33.369Z,16.53
2019-06-27T18:44:03.946Z,11.13
2019-06-27T18:46:34.448Z,11.30
2019-06-27T18:49:04.924Z,10.47
2019-06-27T18:51:35.401Z,8.60
2019-06-27T18:54:06.001Z,11.33
2019-06-27T18:56:36.532Z,8.03
2019-06-27T18:59:06.989Z,7.97
2019-06-27T19:01:37.501Z,6.63
2019-06-27T19:04:07.988Z,7.27
2019-06-27T19:06:38.480Z,8.97
2019-06-27T19:09:09.080Z,10.40
2019-06-27T19:11:39.543Z,6.93
2019-06-27T19:14:10.081Z,6.67
2019-06-27T19:16:40.622Z,10.03
2019-06-27T19:19:13.658Z,6.80
2019-06-27T19:21:54.294Z,6.43
2019-06-27T19:24:52.628Z,7.17
2019-06-27T19:27:23.124Z,6.97
2019-06-27T19:29:53.629Z,6.23
2019-06-27T19:32:24.132Z,10.03
2019-06-27T19:34:54.636Z,6.93
2019-06-27T19:37:25.099Z,6.53
2019-06-27T19:39:55.592Z,7.00
2019-06-27T19:42:26.055Z,8.17
2019-06-27T19:44:56.563Z,6.57
2019-06-27T19:47:27.037Z,11.10
2019-06-27T19:49:57.502Z,8.10
2019-06-27T19:52:28.003Z,7.03
2019-06-27T19:54:58.455Z,7.50
2019-06-27T19:57:29.232Z,7.20
2019-06-27T19:59:59.696Z,8.37
2019-06-27T20:02:30.310Z,6.97
2019-06-27T20:05:00.765Z,6.67
2019-06-27T20:07:31.481Z,7.13
2019-06-27T20:10:02.002Z,6.90
2019-06-27T20:12:32.521Z,6.97
2019-06-27T20:15:03.086Z,6.93
2019-06-27T20:17:33.535Z,6.70
2019-06-27T20:20:04.266Z,6.87
2019-06-27T20:22:34.729Z,6.50
2019-06-27T20:25:05.522Z,6.90
2019-06-27T20:27:35.988Z,6.53
2019-06-27T20:30:07.268Z,6.80
2019-06-27T20:32:37.761Z,6.50
2019-06-27T20:35:09.011Z,7.07
2019-06-27T20:37:39.715Z,6.43
2019-06-27T20:40:10.376Z,7.63
2019-06-27T20:42:40.861Z,8.13
2019-06-27T20:45:11.901Z,6.43
2019-06-27T20:47:42.417Z,6.43
2019-06-27T20:50:13.523Z,8.37
2019-06-27T20:52:43.979Z,7.00
2019-06-27T20:55:14.568Z,7.07
2019-06-27T20:57:45.020Z,7.47
2019-06-27T21:00:15.813Z,7.63
2019-06-27T21:02:46.298Z,7.00
2019-06-27T21:05:16.848Z,7.10
2019-06-27T21:07:47.492Z,7.80
2019-06-27T21:10:18.068Z,6.90
2019-06-27T21:12:48.619Z,6.87
2019-06-27T21:15:20.921Z,7.27
2019-06-27T21:17:51.360Z,8.40
2019-06-27T21:20:21.918Z,7.07
2019-06-27T21:22:52.622Z,11.33
2019-06-27T21:25:23.175Z,7.83
2019-06-27T21:27:53.659Z,7.73
2019-06-27T21:30:24.558Z,7.13
2019-06-27T21:32:55.064Z,7.37
2019-06-27T21:35:25.550Z,7.17
2019-06-27T21:37:56.028Z,7.33
2019-06-27T21:40:26.575Z,6.77
2019-06-27T21:42:57.065Z,6.93
2019-06-27T21:45:27.512Z,8.87
2019-06-27T21:47:58.217Z,6.63
2019-06-27T21:50:28.677Z,6.70
2019-06-27T21:52:59.172Z,6.73
2019-06-27T21:55:29.731Z,7.03
2019-06-27T21:58:00.408Z,6.53
2019-06-27T22:00:33.517Z,6.53
2019-06-27T22:03:04.240Z,6.53
2019-06-27T22:05:34.829Z,6.83
2019-06-27T22:08:05.523Z,6.57
2019-06-27T22:10:36.010Z,6.67
2019-06-27T22:13:06.591Z,5.90
2019-06-27T22:15:37.076Z,6.43
2019-06-27T22:18:07.634Z,6.37
2019-06-27T22:20:39.636Z,6.70
2019-06-27T22:23:10.394Z,6.53
2019-06-27T22:25:41.254Z,6.50
2019-06-27T22:28:11.945Z,6.90
2019-06-27T22:30:42.391Z,7.20
2019-06-27T22:33:12.849Z,6.27
2019-06-27T22:35:43.334Z,6.50
2019-06-27T22:38:31.311Z,6.37
2019-06-27T22:41:19.496Z,7.40
2019-06-27T22:44:07.600Z,6.70
2019-06-27T22:46:55.256Z,7.30
2019-06-27T22:49:24.847Z,6.73
2019-06-27T22:52:17.079Z,7.20
2019-06-27T22:54:49.178Z,7.40
2019-06-27T22:57:19.746Z,7.60
2019-06-27T22:59:50.240Z,7.10
2019-06-27T23:02:20.743Z,7.77
2019-06-27T23:04:51.230Z,6.43
2019-06-27T23:07:21.793Z,7.10
2019-06-27T23:09:56.863Z,7.23
2019-06-27T23:12:24.586Z,7.07
2019-06-27T23:14:55.086Z,6.57
2019-06-27T23:17:25.529Z,7.33
2019-06-27T23:19:56.015Z,6.90
2019-06-27T23:22:26.534Z,7.70
2019-06-27T23:24:56.976Z,7.30
2019-06-27T23:27:27.429Z,7.70
2019-06-27T23:29:57.976Z,7.60
2019-06-27T23:32:28.436Z,7.83
2019-06-27T23:34:58.927Z,9.67
2019-06-27T23:37:29.375Z,8.20
2019-06-27T23:40:13.457Z,7.37
2019-06-27T23:42:32.067Z,7.40
2019-06-27T23:45:02.557Z,7.53
2019-06-27T23:47:35.855Z,8.00
2019-06-27T23:50:06.400Z,7.67
2019-06-27T23:52:36.864Z,8.03
2019-06-27T23:55:07.773Z,7.73
2019-06-27T23:57:38.223Z,7.80
